Aviation Forecast PDF Print E-mail

 met_logo

NATIONAL METEOROLOGICAL SERVICE OF BELIZE

Area Forecast for the Country of Belize


For the period from:

1200  21  OCTOBER  2014

to

2400  21  OCTOBER  2014

All Heights in the forecast are above sea level. PS= Positive, MS= Minus. All times are UTC.


A.

SPECIAL FEATURES of the METEOROLOGICAL SITUATION

 RELATIVELY MOIST AND UNSTABLE CONDITIONS CONTINUE OVER THE FORECAST AREA...

B.

HEIGHT (Ft)

WIND (True Degrees and Knots)

TEMPERATURE (°C)

Surface

14008

PS31-33

2,000

12010

PS22

5,000

14010

PS19

10,000

16015

PS10


C.

CLOUDS (Amount, Type, Ceiling and Top(optional))

 

 FEW/SCT CB BASES 1,000-1,500FT. TOPS NEAR 30,000FT.

 SCT/BKN CU BASES 1,500-2,500FT. TOPS 8,000-10,000FT.

 SCT/BKN SC BASES LAYERED 3,500-5,000FT.

 

D.

SURFACE VISIBILITY:  GREATER THAN 10KM, REDUCED TO 2-5KM IN TSRA / SHRA AND 500M IN HILL FOG. 


E.

WEATHER:  SUNNY WITH A FEW CLOUDY SPELLS. A FEW SHOWERS AND ISOLATED THUNDERSTORMS MOSTLY OVER NORTHERN AND CENTRAL AREAS. HILL FOG INLAND.

Remarks, Warnings, Turbulence

Barometric Changes

LOW CLOUDS COVERING HILLS

MOD TURB IN TCU/CB

FALLING

G.

OUTLOOK:

TO 1200 22 OCT-

PARTLY CLOUDY. FEW SHRA / ISOL TSRA SOUTH AND COAST .

H.

TAF  MZBZ

211045Z 2112/2212 14008KT 9999 SCT022 SCT045 PROB40 TEMPO 2115/2121 4000 SHRA BKN015 BKN040 PROB30 TEMPO 2117/2110 2000 TSRA SCT012CB BKN035=

I.

Meteorological Office:

BELIZE

Issued at:

1130 21 OCTOBER 2014

Forecaster:

M.  GENTLE.